Time;durP1;ratioP1;P1;durP2;ratioP2;P2;SDS_P1;SDS_P2;PMS_P1;PMS_P2;Temp;Humidity;BMP_temperature;BMP_pressure;BME280_temperature;BME280_humidity;BME280_pressure;Samples;Min_cycle;Max_cycle;Signal;HPM_P1;HPM_P2
2021/05/28 00:00:14;;;;;;;8.43;7.63;;;14.10;93.30;;;;;;5012347;28;20686;-47
2021/05/28 00:02:41;;;;;;;13.83;8.53;;;14.10;93.30;;;;;;5010712;28;20620;-49
2021/05/28 00:05:09;;;;;;;8.47;7.63;;;14.10;93.20;;;;;;5021815;28;21187;-49
2021/05/28 00:07:36;;;;;;;7.60;6.43;;;14.10;93.20;;;;;;4992406;28;20696;-49
2021/05/28 00:10:03;;;;;;;8.20;7.37;;;14.10;93.20;;;;;;5006669;28;20647;-49
2021/05/28 00:12:30;;;;;;;7.63;6.90;;;14.10;93.20;;;;;;5026515;28;20636;-50
2021/05/28 00:14:57;;;;;;;8.50;7.57;;;14.10;93.30;;;;;;5013289;28;20671;-49
2021/05/28 00:17:24;;;;;;;8.87;8.03;;;14.10;93.40;;;;;;5015684;28;20656;-49
2021/05/28 00:19:51;;;;;;;8.80;7.27;;;14.10;93.40;;;;;;5011417;28;20696;-49
2021/05/28 00:22:18;;;;;;;8.20;7.30;;;14.10;93.30;;;;;;5011980;28;20686;-49
2021/05/28 00:24:44;;;;;;;8.20;7.43;;;14.00;93.30;;;;;;5011417;28;21017;-49
2021/05/28 00:27:11;;;;;;;7.33;6.63;;;14.00;93.40;;;;;;5028459;28;20690;-47
2021/05/28 00:29:38;;;;;;;10.83;7.53;;;14.00;93.40;;;;;;5031319;28;20703;-48
2021/05/28 00:32:06;;;;;;;8.73;7.83;;;14.00;93.40;;;;;;5021157;28;20962;-47
2021/05/28 00:34:33;;;;;;;10.90;8.03;;;13.90;93.40;;;;;;5009622;28;20659;-48
2021/05/28 00:36:59;;;;;;;8.00;7.30;;;13.90;93.50;;;;;;5026219;28;21187;-49
2021/05/28 00:39:26;;;;;;;10.80;7.70;;;13.80;93.60;;;;;;5022103;28;20632;-47
2021/05/28 00:41:53;;;;;;;10.37;8.20;;;13.90;93.70;;;;;;5011962;28;20650;-48
2021/05/28 00:44:22;;;;;;;11.83;9.13;;;13.90;93.80;;;;;;5012054;28;20666;-47
2021/05/28 00:46:48;;;;;;;9.00;8.10;;;13.90;93.70;;;;;;5024453;28;20707;-47
2021/05/28 00:49:16;;;;;;;9.57;8.47;;;13.90;93.70;;;;;;5030727;28;20638;-47
2021/05/28 00:51:43;;;;;;;10.63;8.57;;;13.90;93.70;;;;;;5031272;28;20658;-47
2021/05/28 00:54:10;;;;;;;10.90;7.70;;;13.90;93.70;;;;;;5018325;28;21126;-47
2021/05/28 00:56:37;;;;;;;8.73;7.80;;;13.90;93.70;;;;;;5014011;28;20698;-48
2021/05/28 00:59:04;;;;;;;8.37;7.67;;;13.90;93.70;;;;;;5011354;28;20655;-47
2021/05/28 01:01:31;;;;;;;9.30;8.43;;;13.90;93.60;;;;;;5016750;28;20712;-48
2021/05/28 01:03:57;;;;;;;10.20;9.20;;;13.90;93.70;;;;;;5020283;28;20631;-47
2021/05/28 01:06:26;;;;;;;11.20;8.10;;;13.90;93.60;;;;;;5017391;28;20699;-48
2021/05/28 01:08:53;;;;;;;11.07;9.10;;;13.90;93.60;;;;;;5010810;28;20651;-48
2021/05/28 01:11:20;;;;;;;12.57;9.50;;;13.90;93.60;;;;;;5018738;28;20659;-49
2021/05/28 01:13:46;;;;;;;13.83;9.17;;;13.90;93.80;;;;;;5029366;28;20651;-49
2021/05/28 01:16:13;;;;;;;12.03;10.00;;;13.90;93.80;;;;;;5017873;28;20679;-48
2021/05/28 01:18:40;;;;;;;9.90;8.90;;;13.90;94.10;;;;;;5011260;28;20631;-49
2021/05/28 01:21:07;;;;;;;12.90;10.37;;;13.90;94.00;;;;;;5014171;28;20659;-49
2021/05/28 01:23:36;;;;;;;16.73;9.07;;;13.90;93.90;;;;;;5021314;28;21284;-49
2021/05/28 01:26:02;;;;;;;11.90;10.17;;;13.90;94.00;;;;;;5030507;28;21251;-49
2021/05/28 01:28:29;;;;;;;9.83;8.83;;;14.00;94.20;;;;;;5030488;28;21160;-49
2021/05/28 01:30:58;;;;;;;11.63;9.77;;;14.00;94.40;;;;;;5019073;28;20774;-48
2021/05/28 01:33:25;;;;;;;10.00;9.13;;;14.00;94.00;;;;;;5019345;28;20762;-51
2021/05/28 01:35:52;;;;;;;12.60;10.77;;;14.00;93.90;;;;;;5010842;28;20623;-49
2021/05/28 01:38:19;;;;;;;11.40;9.80;;;14.00;94.00;;;;;;5010524;28;20628;-48
2021/05/28 01:40:47;;;;;;;10.97;9.40;;;14.00;94.20;;;;;;5011078;28;20662;-48
2021/05/28 01:43:15;;;;;;;11.60;10.40;;;14.00;94.30;;;;;;5018324;28;20685;-48
2021/05/28 01:45:42;;;;;;;11.63;10.40;;;14.00;94.30;;;;;;5030022;28;20701;-48
2021/05/28 01:48:09;;;;;;;13.90;11.17;;;14.00;94.50;;;;;;5011966;28;21238;-48
2021/05/28 01:50:43;;;;;;;12.97;9.77;;;13.90;94.50;;;;;;5010416;28;20703;-48
2021/05/28 01:53:10;;;;;;;11.20;10.00;;;14.00;94.50;;;;;;5016411;28;20655;-48
2021/05/28 01:55:37;;;;;;;13.13;10.17;;;13.90;94.40;;;;;;5019192;28;20714;-48
2021/05/28 01:58:09;;;;;;;12.37;11.17;;;13.90;94.50;;;;;;5012626;28;20659;-49
2021/05/28 02:00:36;;;;;;;12.50;10.00;;;13.90;94.60;;;;;;5013357;28;21140;-49
2021/05/28 02:03:03;;;;;;;14.07;9.77;;;13.90;94.60;;;;;;5016673;28;20721;-48
2021/05/28 02:05:30;;;;;;;11.47;9.97;;;13.90;94.50;;;;;;5019874;28;20694;-49
2021/05/28 02:07:56;;;;;;;11.00;9.90;;;13.90;94.30;;;;;;5009801;28;20706;-48
2021/05/28 02:10:23;;;;;;;12.13;11.00;;;13.90;94.20;;;;;;5015176;28;20663;-49
2021/05/28 02:12:52;;;;;;;12.27;11.00;;;13.90;94.10;;;;;;5026723;28;20701;-49
2021/05/28 02:15:19;;;;;;;13.07;11.77;;;13.90;94.10;;;;;;5009712;28;20703;-48
2021/05/28 02:17:46;;;;;;;13.10;10.63;;;13.90;94.00;;;;;;5009226;28;21266;-49
2021/05/28 02:20:13;;;;;;;12.07;10.87;;;13.90;94.20;;;;;;5010151;28;20664;-49
2021/05/28 02:22:40;;;;;;;11.70;10.50;;;13.90;93.70;;;;;;5024707;28;20651;-49
2021/05/28 02:25:08;;;;;;;13.20;11.87;;;13.90;93.80;;;;;;5013617;28;20654;-48
2021/05/28 02:27:35;;;;;;;12.57;10.17;;;13.90;93.90;;;;;;5019272;28;21026;-49
2021/05/28 02:30:02;;;;;;;12.20;10.33;;;13.90;94.40;;;;;;5015649;28;21068;-48
2021/05/28 02:32:29;;;;;;;12.67;11.37;;;13.90;94.00;;;;;;5009193;28;20671;-49
2021/05/28 02:34:56;;;;;;;14.30;11.93;;;13.90;94.00;;;;;;4990166;28;20656;-49
2021/05/28 02:37:22;;;;;;;16.40;10.97;;;13.90;94.10;;;;;;4998556;28;21180;-48
2021/05/28 02:39:49;;;;;;;12.20;9.97;;;13.90;94.40;;;;;;5025211;28;20632;-49
2021/05/28 02:42:16;;;;;;;14.37;10.83;;;13.90;94.30;;;;;;5017378;28;20654;-49
2021/05/28 02:44:43;;;;;;;12.57;11.20;;;13.90;94.20;;;;;;5020182;28;20658;-49
2021/05/28 02:47:09;;;;;;;10.80;9.80;;;13.90;94.10;;;;;;5028583;28;20677;-49
2021/05/28 02:49:37;;;;;;;11.43;10.37;;;13.90;94.20;;;;;;5028932;28;20760;-48
2021/05/28 02:52:04;;;;;;;11.83;10.60;;;13.90;94.00;;;;;;5028945;28;20777;-48
2021/05/28 02:54:31;;;;;;;11.80;10.60;;;13.90;93.90;;;;;;5013039;28;20944;-48
2021/05/28 02:56:57;;;;;;;12.10;10.90;;;13.90;93.80;;;;;;5008965;28;20686;-48
2021/05/28 02:59:24;;;;;;;12.07;9.97;;;13.80;93.70;;;;;;5009418;28;20659;-48
2021/05/28 03:01:51;;;;;;;14.17;8.97;;;13.80;93.70;;;;;;5009563;28;20612;-48
2021/05/28 03:04:18;;;;;;;14.70;10.30;;;13.80;93.70;;;;;;5021369;28;20671;-48
2021/05/28 03:06:46;;;;;;;12.93;10.57;;;13.70;93.70;;;;;;5029005;28;20697;-48
2021/05/28 03:09:12;;;;;;;10.73;9.83;;;13.70;93.90;;;;;;5025973;28;21085;-49
2021/05/28 03:11:39;;;;;;;11.50;10.33;;;13.70;94.00;;;;;;5009386;28;20729;-49
2021/05/28 03:14:06;;;;;;;13.30;11.40;;;13.70;94.10;;;;;;5021155;28;21013;-49
2021/05/28 03:16:33;;;;;;;10.87;9.73;;;13.70;94.20;;;;;;5018335;28;20739;-49
2021/05/28 03:19:02;;;;;;;12.40;11.20;;;13.70;94.20;;;;;;5008916;28;20644;-49
2021/05/28 03:21:38;;;;;;;14.80;10.13;;;13.70;94.20;;;;;;5017271;28;20804;-48
2021/05/28 03:24:07;;;;;;;10.73;9.63;;;13.70;94.20;;;;;;5028918;28;20641;-49
2021/05/28 03:26:34;;;;;;;13.23;8.63;;;13.70;94.30;;;;;;5027414;28;20667;-48
2021/05/28 03:29:01;;;;;;;11.10;10.00;;;13.60;94.10;;;;;;5027055;28;20648;-49
2021/05/28 03:31:28;;;;;;;10.07;9.07;;;13.60;94.00;;;;;;5021712;28;20693;-48
2021/05/28 03:33:54;;;;;;;10.67;9.43;;;13.60;94.10;;;;;;5023279;28;21164;-47
2021/05/28 03:36:21;;;;;;;10.70;9.37;;;13.60;94.00;;;;;;5019110;28;20683;-48
2021/05/28 03:38:48;;;;;;;11.73;10.53;;;13.60;93.90;;;;;;5008437;28;20701;-49
2021/05/28 03:41:16;;;;;;;11.97;10.80;;;13.50;94.00;;;;;;5009995;28;20775;-49
2021/05/28 03:43:42;;;;;;;22.43;10.60;;;13.50;94.30;;;;;;5009033;28;20655;-48
2021/05/28 03:46:09;;;;;;;13.60;11.30;;;13.50;94.40;;;;;;5008494;28;20698;-49
2021/05/28 03:48:36;;;;;;;11.60;10.50;;;13.50;94.40;;;;;;5013411;28;20631;-48
2021/05/28 03:51:03;;;;;;;10.77;9.67;;;13.50;94.30;;;;;;5025433;28;20667;-48
2021/05/28 03:53:29;;;;;;;12.83;11.17;;;13.40;94.30;;;;;;5009193;28;20674;-48
2021/05/28 03:55:56;;;;;;;13.67;10.30;;;13.40;94.30;;;;;;5008939;28;20667;-48
2021/05/28 03:58:24;;;;;;;11.87;9.67;;;13.40;94.30;;;;;;5008799;28;20727;-49
2021/05/28 04:00:51;;;;;;;11.77;10.00;;;13.40;94.40;;;;;;5008424;28;20620;-49
2021/05/28 04:03:18;;;;;;;11.67;10.53;;;13.40;94.90;;;;;;5016144;28;20697;-49
2021/05/28 04:05:44;;;;;;;13.70;10.70;;;13.40;94.70;;;;;;5012148;28;21096;-48
2021/05/28 04:08:11;;;;;;;11.43;10.23;;;13.40;94.70;;;;;;5028519;28;20651;-48
2021/05/28 04:10:38;;;;;;;11.93;10.57;;;13.40;94.60;;;;;;5023794;28;21196;-48
2021/05/28 04:13:05;;;;;;;11.40;10.30;;;13.50;94.50;;;;;;5018757;28;20634;-48
2021/05/28 04:15:33;;;;;;;11.20;9.93;;;13.50;94.50;;;;;;5019666;28;20652;-49
2021/05/28 04:17:59;;;;;;;11.80;10.50;;;13.50;94.50;;;;;;5025716;28;20686;-48
2021/05/28 04:20:26;;;;;;;12.60;10.10;;;13.50;94.40;;;;;;5012094;28;20666;-48
2021/05/28 04:22:53;;;;;;;11.27;9.60;;;13.40;94.30;;;;;;5029599;28;20678;-48
2021/05/28 04:25:19;;;;;;;14.43;10.50;;;13.40;94.50;;;;;;5029798;28;20657;-48
2021/05/28 04:27:49;;;;;;;10.93;9.83;;;13.40;94.50;;;;;;5013289;28;20666;-48
2021/05/28 04:30:23;;;;;;;12.57;10.30;;;13.30;94.90;;;;;;5012600;28;20667;-48
2021/05/28 04:32:51;;;;;;;11.93;10.83;;;13.30;94.70;;;;;;5022549;28;20655;-48
2021/05/28 04:35:18;;;;;;;14.57;13.07;;;13.30;94.80;;;;;;5012074;28;20674;-49
2021/05/28 04:37:45;;;;;;;12.00;9.90;;;13.20;94.80;;;;;;5031275;28;20706;-49
2021/05/28 04:40:12;;;;;;;12.17;10.87;;;13.30;94.90;;;;;;5031420;28;20646;-49
2021/05/28 04:42:39;;;;;;;11.63;10.43;;;13.30;94.90;;;;;;5016633;28;21085;-48
2021/05/28 04:45:07;;;;;;;12.07;10.10;;;13.30;95.00;;;;;;5011951;28;21053;-49
2021/05/28 04:47:33;;;;;;;14.17;10.80;;;13.30;94.80;;;;;;5016956;28;20714;-49
2021/05/28 04:50:01;;;;;;;13.03;11.70;;;13.30;94.80;;;;;;5023389;28;20670;-49
2021/05/28 04:52:28;;;;;;;12.80;10.87;;;13.40;94.80;;;;;;5018526;28;20716;-48
2021/05/28 04:54:54;;;;;;;13.17;11.47;;;13.40;94.70;;;;;;5021095;28;20659;-49
2021/05/28 04:57:21;;;;;;;16.37;10.60;;;13.40;94.70;;;;;;5012868;28;20687;-49
2021/05/28 04:59:48;;;;;;;10.73;9.73;;;13.40;94.80;;;;;;5018297;28;20638;-49
2021/05/28 05:02:15;;;;;;;13.60;10.60;;;13.50;94.80;;;;;;5032167;28;20651;-48
2021/05/28 05:04:41;;;;;;;11.10;10.00;;;13.50;94.70;;;;;;5012743;28;20663;-49
2021/05/28 05:07:09;;;;;;;10.63;9.83;;;13.60;94.60;;;;;;5022159;28;21196;-49
2021/05/28 05:09:36;;;;;;;12.27;9.37;;;13.60;94.50;;;;;;5012608;28;20678;-48
2021/05/28 05:12:03;;;;;;;16.00;10.70;;;13.60;94.40;;;;;;5013121;28;20659;-49
2021/05/28 05:14:30;;;;;;;13.23;10.37;;;13.70;94.40;;;;;;5030720;28;20750;-48
2021/05/28 05:16:56;;;;;;;10.33;9.33;;;13.70;94.30;;;;;;5021805;28;20702;-49
2021/05/28 05:19:23;;;;;;;11.10;9.90;;;13.70;94.00;;;;;;5015102;28;20739;-48
2021/05/28 05:21:52;;;;;;;16.70;10.80;;;13.70;94.10;;;;;;5015516;28;21204;-48
2021/05/28 05:24:20;;;;;;;14.37;12.57;;;13.80;94.20;;;;;;5010988;28;20724;-49
2021/05/28 05:26:47;;;;;;;11.47;10.30;;;13.70;94.20;;;;;;5011816;28;20731;-48
2021/05/28 05:29:14;;;;;;;14.03;11.47;;;13.80;94.10;;;;;;5011599;28;20639;-48
2021/05/28 05:31:40;;;;;;;12.90;11.17;;;13.80;94.00;;;;;;5010423;28;21258;-48
2021/05/28 05:34:07;;;;;;;12.97;10.27;;;13.80;94.00;;;;;;5010832;28;20751;-50
2021/05/28 05:36:35;;;;;;;12.27;9.97;;;13.90;93.90;;;;;;5012102;28;21500;-49
2021/05/28 05:39:02;;;;;;;14.43;10.90;;;13.90;93.90;;;;;;5014011;28;20735;-48
2021/05/28 05:41:30;;;;;;;11.13;10.10;;;14.00;93.90;;;;;;5022087;28;21333;-50
2021/05/28 05:43:56;;;;;;;16.97;11.00;;;14.00;93.80;;;;;;5028712;28;20623;-50
2021/05/28 05:46:23;;;;;;;13.17;11.67;;;14.00;94.00;;;;;;5015957;28;20703;-49
2021/05/28 05:48:50;;;;;;;11.77;10.20;;;14.10;93.60;;;;;;5010920;28;21046;-50
2021/05/28 05:51:17;;;;;;;14.73;12.23;;;14.10;93.30;;;;;;5013274;28;20667;-49
2021/05/28 05:53:43;;;;;;;13.93;12.10;;;14.10;93.20;;;;;;5010880;28;20620;-49
2021/05/28 05:56:10;;;;;;;14.70;13.30;;;14.10;93.20;;;;;;5009037;28;20690;-50
2021/05/28 05:58:38;;;;;;;12.00;10.93;;;14.10;93.20;;;;;;5012948;28;20667;-48
2021/05/28 06:01:05;;;;;;;20.10;16.23;;;14.20;93.20;;;;;;5015215;28;20664;-50
2021/05/28 06:03:31;;;;;;;17.47;14.20;;;14.20;93.10;;;;;;5010172;28;20628;-49
2021/05/28 06:05:58;;;;;;;14.53;13.13;;;14.20;93.20;;;;;;5010126;28;20652;-50
2021/05/28 06:08:25;;;;;;;14.87;13.47;;;14.10;93.10;;;;;;5010851;28;20744;-49
2021/05/28 06:10:52;;;;;;;14.87;13.43;;;14.10;93.20;;;;;;5009095;28;20843;-48
2021/05/28 06:13:18;;;;;;;14.60;12.63;;;14.20;93.40;;;;;;5010304;28;20660;-48
2021/05/28 06:15:46;;;;;;;16.03;14.33;;;14.20;93.40;;;;;;5010238;28;21200;-48
2021/05/28 06:18:13;;;;;;;14.83;13.27;;;14.30;93.50;;;;;;5010452;28;20640;-48
2021/05/28 06:20:39;;;;;;;15.50;12.43;;;14.40;93.50;;;;;;5018249;28;20705;-49
2021/05/28 06:23:06;;;;;;;14.70;13.20;;;14.40;93.40;;;;;;5029869;28;20625;-49
2021/05/28 06:25:33;;;;;;;14.40;12.90;;;14.50;93.30;;;;;;5030206;28;20681;-49
2021/05/28 06:28:00;;;;;;;17.53;14.70;;;14.60;93.30;;;;;;5029339;28;20722;-49
2021/05/28 06:30:27;;;;;;;19.30;14.50;;;14.70;93.30;;;;;;5009181;28;21259;-48
2021/05/28 06:32:54;;;;;;;16.03;14.17;;;14.70;93.20;;;;;;5010190;28;20671;-49
2021/05/28 06:35:21;;;;;;;18.97;14.27;;;14.80;93.20;;;;;;5010229;28;20670;-48
2021/05/28 06:37:48;;;;;;;16.90;14.13;;;14.80;93.10;;;;;;5009442;28;20684;-49
2021/05/28 06:40:15;;;;;;;17.53;15.17;;;14.80;93.10;;;;;;5011130;28;20670;-49
2021/05/28 06:42:41;;;;;;;17.63;14.97;;;14.90;93.10;;;;;;5020814;28;20769;-49
2021/05/28 06:45:08;;;;;;;16.47;14.07;;;15.00;93.20;;;;;;5027542;28;20630;-49
2021/05/28 06:47:35;;;;;;;14.00;12.67;;;15.00;93.10;;;;;;5011086;28;20695;-48
2021/05/28 06:50:03;;;;;;;21.10;13.60;;;15.10;93.10;;;;;;5009590;28;20628;-49
2021/05/28 06:52:30;;;;;;;15.57;14.00;;;15.20;93.00;;;;;;5010492;28;20639;-49
2021/05/28 06:54:57;;;;;;;15.30;12.67;;;15.20;92.90;;;;;;5010127;28;20698;-49
2021/05/28 06:57:25;;;;;;;19.07;15.23;;;15.20;92.70;;;;;;5009152;28;20687;-48
2021/05/28 06:59:51;;;;;;;13.00;11.70;;;15.30;92.70;;;;;;5009668;28;20655;-48
2021/05/28 07:02:18;;;;;;;12.43;11.23;;;15.30;92.40;;;;;;5009745;28;20704;-49
2021/05/28 07:04:45;;;;;;;10.90;9.90;;;15.30;92.30;;;;;;5010280;28;21170;-49
2021/05/28 07:07:12;;;;;;;11.60;10.50;;;15.40;92.10;;;;;;5009226;28;20700;-49
2021/05/28 07:09:39;;;;;;;9.40;8.60;;;15.50;91.80;;;;;;5010117;28;20690;-48
2021/05/28 07:12:07;;;;;;;8.80;8.00;;;15.50;91.80;;;;;;5009950;28;20652;-49
2021/05/28 07:14:33;;;;;;;7.70;7.00;;;15.70;91.80;;;;;;5009799;28;20670;-49
2021/05/28 07:17:00;;;;;;;11.27;8.77;;;15.70;91.60;;;;;;5010227;28;20690;-49
2021/05/28 07:19:27;;;;;;;7.73;7.13;;;15.80;91.10;;;;;;5009832;28;21176;-48
2021/05/28 07:21:53;;;;;;;7.93;7.23;;;15.80;90.80;;;;;;5009633;28;20638;-49
2021/05/28 07:24:21;;;;;;;9.87;8.97;;;15.90;90.60;;;;;;5010262;28;20774;-49
2021/05/28 07:26:48;;;;;;;11.10;8.30;;;16.00;90.50;;;;;;5009682;28;20739;-49
2021/05/28 07:29:15;;;;;;;9.93;8.97;;;16.00;90.40;;;;;;5009321;28;20646;-49
2021/05/28 07:31:42;;;;;;;10.77;8.53;;;16.10;90.30;;;;;;5010038;28;20627;-48
2021/05/28 07:34:08;;;;;;;16.07;8.67;;;16.20;90.30;;;;;;5009529;28;20671;-48
2021/05/28 07:36:35;;;;;;;9.87;8.87;;;16.30;90.20;;;;;;5009575;28;21277;-48
2021/05/28 07:39:04;;;;;;;10.63;8.23;;;16.30;90.10;;;;;;5009684;28;20655;-48
2021/05/28 07:41:31;;;;;;;10.67;9.20;;;16.40;90.10;;;;;;4991456;28;20670;-49
2021/05/28 07:43:58;;;;;;;10.03;8.87;;;16.50;90.00;;;;;;5011021;28;20635;-49
2021/05/28 07:46:25;;;;;;;9.83;7.37;;;16.60;89.90;;;;;;5013589;28;20687;-50
2021/05/28 07:48:52;;;;;;;9.30;7.30;;;16.60;90.00;;;;;;5013378;28;20706;-49
2021/05/28 07:51:18;;;;;;;9.63;7.23;;;16.70;89.00;;;;;;5013308;28;20687;-50
2021/05/28 07:53:45;;;;;;;10.50;6.90;;;16.80;88.90;;;;;;5012578;28;20691;-49
2021/05/28 07:56:12;;;;;;;7.23;6.63;;;16.90;88.60;;;;;;5012740;28;20687;-49
2021/05/28 07:58:40;;;;;;;9.40;6.50;;;17.00;88.10;;;;;;5013118;28;20755;-49
2021/05/28 08:01:07;;;;;;;6.30;5.07;;;17.00;87.10;;;;;;5013288;28;20667;-50
2021/05/28 08:03:34;;;;;;;6.80;5.60;;;17.00;85.60;;;;;;5013127;28;20674;-50
2021/05/28 08:06:01;;;;;;;6.73;5.50;;;17.00;86.50;;;;;;5013271;28;20666;-50
2021/05/28 08:08:28;;;;;;;6.17;5.40;;;17.10;86.50;;;;;;5012725;28;20726;-49
2021/05/28 08:10:55;;;;;;;6.57;5.90;;;17.30;86.40;;;;;;5013038;28;20631;-49
2021/05/28 08:13:22;;;;;;;7.97;5.83;;;17.50;87.10;;;;;;5013142;28;20670;-50
2021/05/28 08:15:50;;;;;;;7.50;4.20;;;17.80;84.50;;;;;;5012992;28;20627;-50
2021/05/28 08:18:26;;;;;;;6.57;5.13;;;17.90;82.80;;;;;;5012277;28;20670;-50
2021/05/28 08:20:53;;;;;;;8.27;6.43;;;17.90;82.30;;;;;;5009863;28;20675;-50
2021/05/28 08:23:20;;;;;;;6.43;5.83;;;18.00;81.60;;;;;;5012875;28;20655;-50
2021/05/28 08:25:49;;;;;;;7.03;6.33;;;17.90;82.60;;;;;;5012867;28;20936;-49
2021/05/28 08:28:16;;;;;;;7.43;6.83;;;17.80;82.40;;;;;;5012421;28;20688;-49
2021/05/28 08:30:43;;;;;;;6.57;5.90;;;17.70;82.50;;;;;;5012664;28;20698;-49
2021/05/28 08:33:12;;;;;;;6.30;5.70;;;17.60;83.00;;;;;;5012826;28;20671;-49
2021/05/28 08:35:39;;;;;;;6.53;4.93;;;17.60;83.90;;;;;;5012204;28;20658;-50
2021/05/28 08:38:06;;;;;;;6.57;5.97;;;17.70;83.10;;;;;;5011933;28;20663;-50
2021/05/28 08:40:34;;;;;;;8.30;6.50;;;17.60;83.30;;;;;;5012407;28;20668;-49
2021/05/28 08:43:01;;;;;;;6.47;5.57;;;17.60;83.20;;;;;;5012077;28;21199;-50
2021/05/28 08:45:28;;;;;;;7.27;5.43;;;17.80;83.00;;;;;;5012261;28;20663;-49
2021/05/28 08:47:55;;;;;;;8.07;4.93;;;17.90;82.60;;;;;;5011706;28;21081;-50
2021/05/28 08:50:25;;;;;;;8.90;4.30;;;18.00;82.00;;;;;;5010584;28;20620;-50
2021/05/28 08:52:52;;;;;;;6.03;5.30;;;18.10;78.70;;;;;;5011862;28;21179;-49
2021/05/28 08:55:19;;;;;;;9.83;5.30;;;18.20;78.70;;;;;;5011892;28;20635;-49
2021/05/28 08:57:46;;;;;;;5.07;3.80;;;18.20;79.20;;;;;;5011477;28;20679;-49
2021/05/28 09:00:14;;;;;;;4.27;3.97;;;18.20;79.30;;;;;;5012453;28;20655;-49
2021/05/28 09:02:40;;;;;;;4.80;3.83;;;18.20;78.40;;;;;;5011382;28;20655;-49
2021/05/28 09:05:12;;;;;;;13.17;4.50;;;18.20;78.20;;;;;;5012070;28;20683;-49
2021/05/28 09:07:41;;;;;;;3.33;2.73;;;18.30;77.30;;;;;;5010931;28;20762;-50
2021/05/28 09:10:27;;;;;;;4.90;3.63;;;18.40;76.10;;;;;;5011577;28;20667;-50
2021/05/28 09:12:54;;;;;;;3.43;3.17;;;18.50;73.20;;;;;;5011522;28;20672;-50
2021/05/28 09:15:21;;;;;;;3.10;2.73;;;18.50;73.70;;;;;;5011707;28;20636;-50
2021/05/28 09:17:48;;;;;;;3.00;2.40;;;18.70;72.70;;;;;;5010968;28;20695;-50
2021/05/28 09:20:20;;;;;;;2.87;2.40;;;18.80;70.80;;;;;;5011388;28;20644;-50
2021/05/28 09:22:47;;;;;;;2.90;2.60;;;18.80;70.20;;;;;;5010072;28;20727;-50
2021/05/28 09:25:15;;;;;;;3.57;2.30;;;18.70;69.30;;;;;;5011235;28;20659;-50
2021/05/28 09:27:47;;;;;;;2.63;2.43;;;18.60;67.50;;;;;;5010612;28;21362;-50
2021/05/28 09:30:14;;;;;;;5.30;2.80;;;18.50;67.90;;;;;;5011270;28;21175;-49
2021/05/28 09:32:43;;;;;;;4.53;2.73;;;18.50;68.50;;;;;;5011188;28;21026;-49
2021/05/28 09:35:11;;;;;;;4.93;3.30;;;18.40;68.50;;;;;;5011467;28;20996;-49
2021/05/28 09:37:40;;;;;;;5.30;3.30;;;18.40;69.20;;;;;;5010512;28;20691;-49
2021/05/28 09:40:14;;;;;;;3.17;2.87;;;18.30;69.70;;;;;;5011451;28;20655;-50
2021/05/28 09:42:51;;;;;;;2.80;2.60;;;18.30;71.00;;;;;;5011602;28;21133;-49
2021/05/28 09:45:29;;;;;;;5.73;2.90;;;18.50;71.80;;;;;;5011015;28;20636;-50
2021/05/28 09:47:56;;;;;;;2.97;2.77;;;18.80;70.80;;;;;;5011002;28;20704;-50
2021/05/28 09:50:23;;;;;;;3.40;2.60;;;19.00;68.70;;;;;;5010583;28;20656;-50
2021/05/28 09:52:50;;;;;;;5.10;2.53;;;19.00;65.10;;;;;;5010398;28;20739;-50
2021/05/28 09:55:18;;;;;;;3.63;2.00;;;19.00;62.90;;;;;;5011194;28;20632;-48
2021/05/28 09:57:45;;;;;;;4.00;2.40;;;19.10;61.80;;;;;;5008798;28;20663;-50
2021/05/28 10:00:22;;;;;;;3.93;2.07;;;19.10;61.70;;;;;;5011168;28;20655;-49
2021/05/28 10:02:48;;;;;;;2.73;2.50;;;19.20;61.90;;;;;;5010458;28;20667;-49
2021/05/28 10:05:21;;;;;;;3.07;2.70;;;19.30;61.20;;;;;;5021667;28;20674;-50
2021/05/28 10:07:48;;;;;;;4.87;2.10;;;19.30;60.80;;;;;;5029614;28;20706;-49
2021/05/28 10:10:16;;;;;;;5.47;2.20;;;19.30;59.30;;;;;;5029986;28;20762;-49
2021/05/28 10:12:44;;;;;;;5.60;2.77;;;19.30;58.10;;;;;;5029717;28;21003;-50
2021/05/28 10:15:12;;;;;;;2.97;2.37;;;19.20;58.70;;;;;;5030422;28;21176;-50
2021/05/28 10:17:39;;;;;;;4.07;2.27;;;19.20;59.10;;;;;;5029303;28;20704;-49
2021/05/28 10:20:07;;;;;;;3.20;2.00;;;19.10;58.70;;;;;;5025685;28;20700;-49
2021/05/28 10:22:34;;;;;;;1.97;1.60;;;19.10;58.70;;;;;;5010841;28;20670;-49
2021/05/28 10:25:04;;;;;;;7.53;2.73;;;19.10;58.40;;;;;;5010668;28;20632;-50
2021/05/28 10:27:32;;;;;;;2.30;2.00;;;19.10;58.50;;;;;;5010042;28;20803;-49
2021/05/28 10:29:59;;;;;;;3.47;2.43;;;19.10;58.30;;;;;;5010365;28;20666;-49
2021/05/28 10:32:25;;;;;;;3.80;2.10;;;19.30;58.10;;;;;;5010544;28;20664;-50
2021/05/28 10:35:12;;;;;;;4.43;2.10;;;19.40;56.50;;;;;;5008239;28;21018;-50
2021/05/28 10:37:39;;;;;;;3.07;1.50;;;19.60;56.10;;;;;;5008116;28;20706;-49
2021/05/28 10:40:26;;;;;;;2.90;1.67;;;19.80;54.20;;;;;;5010049;28;20662;-48
2021/05/28 10:43:01;;;;;;;5.60;3.17;;;19.90;54.10;;;;;;5009975;28;20687;-51
2021/05/28 10:45:54;;;;;;;3.50;2.03;;;20.00;53.90;;;;;;5010195;28;20639;-50
2021/05/28 10:48:54;;;;;;;3.80;2.37;;;20.10;53.40;;;;;;5009410;28;20690;-49
2021/05/28 10:51:22;;;;;;;1.80;1.70;;;20.10;53.20;;;;;;5010631;28;20663;-50
2021/05/28 10:54:22;;;;;;;2.30;1.60;;;20.20;53.50;;;;;;5010671;28;20664;-49
2021/05/28 10:56:48;;;;;;;2.70;2.50;;;20.50;54.40;;;;;;5010749;28;20693;-50
2021/05/28 10:59:16;;;;;;;4.30;3.63;;;20.70;53.20;;;;;;5010552;28;20612;-50
2021/05/28 11:01:44;;;;;;;3.23;2.40;;;20.80;52.20;;;;;;5010365;28;20667;-49
2021/05/28 11:04:11;;;;;;;6.60;2.33;;;21.00;51.50;;;;;;5010954;28;21038;-49
2021/05/28 11:07:11;;;;;;;2.47;1.70;;;21.10;49.80;;;;;;5009992;28;20656;-49
2021/05/28 11:09:39;;;;;;;3.63;1.67;;;20.80;49.20;;;;;;5009329;28;20700;-50
2021/05/28 11:12:06;;;;;;;3.37;1.80;;;20.60;50.30;;;;;;5009382;28;20619;-51
2021/05/28 11:14:36;;;;;;;2.33;1.83;;;20.50;50.60;;;;;;5009400;28;21176;-48
2021/05/28 11:17:10;;;;;;;8.07;2.30;;;20.40;50.20;;;;;;5009725;28;20663;-49
2021/05/28 11:19:56;;;;;;;1.30;1.20;;;20.50;48.40;;;;;;5013922;28;21179;-49
2021/05/28 11:22:36;;;;;;;1.50;1.13;;;21.00;47.50;;;;;;5013462;28;20682;-49
2021/05/28 11:25:05;;;;;;;2.30;0.90;;;21.90;45.00;;;;;;5013420;28;21181;-49
2021/05/28 11:27:43;;;;;;;1.57;1.03;;;22.70;41.90;;;;;;5012845;28;20697;-50
2021/05/28 11:30:24;;;;;;;3.50;1.00;;;23.20;41.20;;;;;;5013808;28;20636;-51
2021/05/28 11:32:51;;;;;;;1.70;1.60;;;23.40;40.20;;;;;;5013172;28;20644;-50
2021/05/28 11:35:19;;;;;;;1.50;1.37;;;23.50;39.30;;;;;;5014366;28;20627;-51
2021/05/28 11:37:49;;;;;;;1.90;1.30;;;23.80;40.20;;;;;;5013012;28;20697;-51
2021/05/28 11:40:17;;;;;;;2.30;1.40;;;24.10;39.80;;;;;;5012176;28;20632;-51
2021/05/28 11:42:44;;;;;;;4.70;1.10;;;24.20;39.10;;;;;;5013443;28;20627;-51
2021/05/28 11:45:12;;;;;;;2.17;1.83;;;24.10;38.50;;;;;;5013424;28;20709;-50
2021/05/28 11:47:39;;;;;;;2.27;1.80;;;24.00;39.10;;;;;;5013329;28;20671;-50
2021/05/28 11:50:08;;;;;;;2.47;1.27;;;23.70;39.40;;;;;;5013851;28;20628;-49
2021/05/28 11:52:34;;;;;;;3.73;2.40;;;23.50;39.80;;;;;;5013848;28;20703;-49
2021/05/28 11:55:06;;;;;;;4.33;2.03;;;23.60;38.60;;;;;;5013162;28;21200;-50
2021/05/28 11:57:32;;;;;;;1.10;1.00;;;23.80;36.80;;;;;;5012780;28;20770;-50
2021/05/28 11:59:59;;;;;;;1.87;1.37;;;24.00;36.30;;;;;;5013519;28;20986;-49
2021/05/28 12:02:46;;;;;;;1.30;1.20;;;23.90;35.70;;;;;;5013449;28;20651;-50
2021/05/28 12:05:19;;;;;;;2.50;1.20;;;23.70;34.80;;;;;;5013189;28;20620;-50
2021/05/28 12:07:46;;;;;;;1.60;1.47;;;23.60;35.50;;;;;;5012500;28;21208;-50
2021/05/28 12:10:13;;;;;;;1.93;1.30;;;23.50;36.20;;;;;;5012259;28;20988;-50
2021/05/28 12:12:57;;;;;;;1.40;1.30;;;23.40;36.70;;;;;;5013100;28;20941;-50
2021/05/28 12:15:24;;;;;;;2.10;1.63;;;23.30;37.00;;;;;;5012849;28;20635;-50
2021/05/28 12:17:51;;;;;;;1.27;1.17;;;23.30;37.10;;;;;;5012387;28;21258;-50
2021/05/28 12:20:22;;;;;;;1.87;1.37;;;23.40;36.80;;;;;;5012029;28;20659;-50
2021/05/28 12:23:14;;;;;;;1.83;1.10;;;23.40;36.10;;;;;;5012566;28;20717;-50
2021/05/28 12:25:43;;;;;;;1.73;1.00;;;23.30;36.50;;;;;;5012119;28;21037;-50
2021/05/28 12:28:15;;;;;;;1.43;1.33;;;23.20;37.40;;;;;;5012093;28;21240;-50
2021/05/28 12:30:45;;;;;;;1.73;1.20;;;23.10;37.10;;;;;;5011314;28;21323;-50
2021/05/28 12:33:11;;;;;;;1.17;1.07;;;23.00;37.10;;;;;;5010596;28;20647;-50
2021/05/28 12:35:39;;;;;;;1.70;1.60;;;22.90;37.70;;;;;;5011825;28;20627;-50
2021/05/28 12:38:09;;;;;;;1.27;1.03;;;23.10;37.60;;;;;;5011855;28;21040;-51
2021/05/28 12:40:36;;;;;;;1.90;1.37;;;23.40;36.50;;;;;;5011894;28;20660;-49
2021/05/28 12:43:04;;;;;;;1.00;0.90;;;23.90;36.30;;;;;;5012324;28;21123;-50